MDT,Max TemperatureF,Mean TemperatureF,Min TemperatureF,Max Dew PointF,MeanDew PointF,Min DewpointF,Max Humidity, Mean Humidity, Min Humidity, Max Sea Level PressureIn, Mean Sea Level PressureIn, Min Sea Level PressureIn, Max VisibilityMiles, Mean VisibilityMiles, Min VisibilityMiles, Max Wind SpeedMPH, Mean Wind SpeedMPH, Max Gust SpeedMPH,PrecipitationIn, CloudCover, Events, WindDirDegrees
2013-7-1,89,77,65,62,57,48,87,57,26,30.16,29.98,29.82,10,9,1,38,7,47,0.25,2,Rain-Thunderstorm,68
2013-7-2,85,74,62,61,54,47,87,58,28,30.10,29.99,29.83,10,10,10,24,8,31,0.01,2,Rain,199
2013-7-3,90,77,63,59,53,47,90,57,23,29.99,29.86,29.70,10,10,10,28,8,37,T,1,Rain-Thunderstorm,164
2013-7-4,93,79,64,57,51,44,73,47,20,29.91,29.74,29.65,10,10,10,33,8,41,0.02,1,Rain,296
2013-7-5,96,82,68,51,48,42,51,34,17,29.78,29.70,29.62,10,10,10,25,8,35,0.00,1,,292
2013-7-6,94,82,70,52,49,45,49,35,20,29.76,29.70,29.63,10,10,10,20,7,25,0.12,0,,312
2013-7-7,96,83,70,59,53,45,61,40,18,30.06,29.81,29.67,10,10,10,24,6,31,T,3,Rain-Thunderstorm,100
2013-7-8,98,86,74,64,54,48,50,36,22,30.13,29.90,29.76,10,9,1,25,9,37,0.27,3,Rain-Thunderstorm,314
2013-7-9,97,82,67,64,56,47,76,47,18,30.20,29.92,29.75,10,10,10,29,6,39,0.13,2,Rain-Thunderstorm,82
2013-7-10,95,82,68,61,55,48,76,50,23,29.95,29.85,29.75,10,10,10,21,5,25,0.00,1,,204
2013-7-11,88,77,66,65,59,51,87,59,31,30.19,29.92,29.78,10,10,5,24,5,32,0.14,4,Rain-Thunderstorm,29
2013-7-12,94,80,66,63,56,47,87,54,20,30.11,29.86,29.74,10,10,9,21,9,30,0.06,3,Rain-Thunderstorm,255
2013-7-13,96,84,71,57,51,44,61,40,19,29.87,29.80,29.72,10,10,10,20,6,29,0.00,1,,306
2013-7-14,97,84,72,59,52,45,64,36,13,30.10,29.79,29.65,10,10,9,56,12,39,0.02,2,Rain-Thunderstorm,355
2013-7-15,82,76,68,60,55,48,70,58,45,29.93,29.86,29.79,10,10,10,28,13,37,0.00,4,,20
2013-7-16,84,74,64,54,48,43,67,46,24,30.02,29.95,29.87,10,10,10,20,6,24,0.03,6,,176
2013-7-17,81,71,60,60,56,50,93,65,37,30.10,30.05,30.00,10,10,4,21,7,25,0.17,5,Rain,80
2013-7-18,76,70,64,61,57,54,87,69,50,30.24,30.02,29.94,10,10,10,15,5,18,T,4,Rain,205
2013-7-19,87,75,63,60,57,53,84,58,32,30.00,29.90,29.77,10,10,10,17,5,22,0.00,1,,190
2013-7-20,89,79,68,65,60,53,84,58,31,30.04,29.84,29.69,10,10,7,30,5,39,0.06,4,Rain-Thunderstorm,177
2013-7-21,91,78,64,64,57,45,93,58,22,29.87,29.78,29.69,10,10,10,17,6,24,0.00,1,,207
2013-7-22,94,80,65,62,55,47,78,50,21,30.07,29.81,29.69,10,10,10,17,7,22,0.00,1,Thunderstorm,297
2013-7-23,95,82,68,62,57,49,78,49,20,30.09,29.81,29.69,10,10,10,14,6,23,0.00,1,Thunderstorm,167
2013-7-24,91,80,70,63,59,53,73,53,32,30.20,29.88,29.76,10,10,10,24,9,30,0.00,3,Rain-Thunderstorm,24
2013-7-25,83,73,64,64,62,59,100,74,47,30.25,30.04,29.90,10,9,1,14,6,20,0.27,5,Rain-Thunderstorm,183
2013-7-26,87,74,70,64,60,55,84,60,35,30.34,30.06,29.91,10,8,0,13,8,17,0.00,4,Fog-Rain-Thunderstorm,274
2013-7-27,81,72,62,63,60,56,93,68,42,30.35,30.05,29.86,10,9,3,23,10,31,0.06,5,Rain-Thunderstorm,323
2013-7-28,86,77,67,62,59,55,78,58,37,30.02,29.83,29.74,10,10,10,25,6,32,T,3,Rain-Thunderstorm,244
2013-7-29,95,82,68,59,51,40,66,41,15,30.07,29.85,29.79,10,10,10,21,8,25,0.00,1,,300
2013-7-30,96,82,69,52,49,44,53,30,11,30.00,29.94,29.88,10,10,10,17,7,25,0.00,0,,327
2013-7-31,97,83,69,55,51,44,53,34,11,30.15,29.95,29.86,10,10,8,17,7,31,0.00,1,Rain,234